sensor_id;sensor_type;location;lat;lon;timestamp;P1;durP1;ratioP1;P2;durP2;ratioP2
23171;SDS011;11754;42.664;23.594;2024-01-16T00:06:03;49.67;;;27.45;;
23171;SDS011;11754;42.664;23.594;2024-01-16T00:08:29;47.67;;;28.15;;
23171;SDS011;11754;42.664;23.594;2024-01-16T00:10:55;54.00;;;28.67;;
23171;SDS011;11754;42.664;23.594;2024-01-16T00:13:20;53.42;;;29.60;;
23171;SDS011;11754;42.664;23.594;2024-01-16T00:15:46;46.83;;;26.05;;
23171;SDS011;11754;42.664;23.594;2024-01-16T00:21:33;58.97;;;30.42;;
23171;SDS011;11754;42.664;23.594;2024-01-16T00:24:03;67.38;;;35.17;;
23171;SDS011;11754;42.664;23.594;2024-01-16T00:26:29;68.18;;;34.67;;
23171;SDS011;11754;42.664;23.594;2024-01-16T00:28:55;67.90;;;31.75;;
23171;SDS011;11754;42.664;23.594;2024-01-16T00:31:20;70.65;;;34.58;;
23171;SDS011;11754;42.664;23.594;2024-01-16T00:33:46;63.00;;;31.63;;
23171;SDS011;11754;42.664;23.594;2024-01-16T00:36:11;45.55;;;23.40;;
23171;SDS011;11754;42.664;23.594;2024-01-16T00:38:37;50.53;;;25.67;;
23171;SDS011;11754;42.664;23.594;2024-01-16T00:41:02;55.90;;;27.83;;
23171;SDS011;11754;42.664;23.594;2024-01-16T00:43:28;53.15;;;26.60;;
23171;SDS011;11754;42.664;23.594;2024-01-16T00:45:53;51.33;;;25.35;;
23171;SDS011;11754;42.664;23.594;2024-01-16T00:48:19;47.92;;;23.48;;
23171;SDS011;11754;42.664;23.594;2024-01-16T00:50:46;73.47;;;37.53;;
23171;SDS011;11754;42.664;23.594;2024-01-16T00:53:13;51.45;;;28.20;;
23171;SDS011;11754;42.664;23.594;2024-01-16T00:55:39;43.78;;;24.33;;
23171;SDS011;11754;42.664;23.594;2024-01-16T00:58:04;40.22;;;23.20;;
23171;SDS011;11754;42.664;23.594;2024-01-16T01:00:30;45.03;;;24.30;;
23171;SDS011;11754;42.664;23.594;2024-01-16T01:02:56;40.33;;;23.00;;
23171;SDS011;11754;42.664;23.594;2024-01-16T01:05:23;38.13;;;22.15;;
23171;SDS011;11754;42.664;23.594;2024-01-16T01:07:53;40.92;;;22.80;;
23171;SDS011;11754;42.664;23.594;2024-01-16T01:10:20;41.45;;;23.85;;
23171;SDS011;11754;42.664;23.594;2024-01-16T01:12:45;41.95;;;23.65;;
23171;SDS011;11754;42.664;23.594;2024-01-16T01:15:11;40.92;;;23.40;;
23171;SDS011;11754;42.664;23.594;2024-01-16T01:17:37;40.85;;;23.17;;
23171;SDS011;11754;42.664;23.594;2024-01-16T01:20:02;39.35;;;23.17;;
23171;SDS011;11754;42.664;23.594;2024-01-16T01:22:28;41.55;;;23.40;;
23171;SDS011;11754;42.664;23.594;2024-01-16T01:24:53;35.97;;;21.98;;
23171;SDS011;11754;42.664;23.594;2024-01-16T01:27:19;39.13;;;23.60;;
23171;SDS011;11754;42.664;23.594;2024-01-16T01:29:45;42.10;;;24.17;;
23171;SDS011;11754;42.664;23.594;2024-01-16T01:32:11;46.65;;;27.20;;
23171;SDS011;11754;42.664;23.594;2024-01-16T01:34:36;56.42;;;30.20;;
23171;SDS011;11754;42.664;23.594;2024-01-16T01:37:03;59.15;;;32.17;;
23171;SDS011;11754;42.664;23.594;2024-01-16T01:39:29;57.65;;;32.33;;
23171;SDS011;11754;42.664;23.594;2024-01-16T01:41:55;53.25;;;28.55;;
23171;SDS011;11754;42.664;23.594;2024-01-16T01:44:20;47.33;;;27.38;;
23171;SDS011;11754;42.664;23.594;2024-01-16T01:46:46;44.05;;;24.38;;
23171;SDS011;11754;42.664;23.594;2024-01-16T01:49:13;41.33;;;23.65;;
23171;SDS011;11754;42.664;23.594;2024-01-16T01:51:40;45.42;;;24.27;;
23171;SDS011;11754;42.664;23.594;2024-01-16T01:54:05;38.75;;;20.88;;
23171;SDS011;11754;42.664;23.594;2024-01-16T01:56:31;37.33;;;21.63;;
23171;SDS011;11754;42.664;23.594;2024-01-16T01:58:57;38.35;;;21.15;;
23171;SDS011;11754;42.664;23.594;2024-01-16T02:01:29;41.20;;;23.85;;
23171;SDS011;11754;42.664;23.594;2024-01-16T02:03:57;43.85;;;22.83;;
23171;SDS011;11754;42.664;23.594;2024-01-16T02:06:24;47.88;;;24.25;;
23171;SDS011;11754;42.664;23.594;2024-01-16T02:08:49;33.08;;;20.67;;
23171;SDS011;11754;42.664;23.594;2024-01-16T02:11:16;39.58;;;21.35;;
23171;SDS011;11754;42.664;23.594;2024-01-16T02:13:42;34.03;;;20.77;;
23171;SDS011;11754;42.664;23.594;2024-01-16T02:16:25;34.60;;;20.27;;
23171;SDS011;11754;42.664;23.594;2024-01-16T02:18:51;35.63;;;21.73;;
23171;SDS011;11754;42.664;23.594;2024-01-16T02:21:18;36.80;;;21.17;;
23171;SDS011;11754;42.664;23.594;2024-01-16T02:23:46;39.72;;;22.90;;
23171;SDS011;11754;42.664;23.594;2024-01-16T02:26:15;39.72;;;24.65;;
23171;SDS011;11754;42.664;23.594;2024-01-16T02:28:42;47.92;;;27.63;;
23171;SDS011;11754;42.664;23.594;2024-01-16T02:31:17;44.38;;;28.17;;
23171;SDS011;11754;42.664;23.594;2024-01-16T02:33:43;44.53;;;25.50;;
23171;SDS011;11754;42.664;23.594;2024-01-16T02:36:08;41.58;;;24.08;;
23171;SDS011;11754;42.664;23.594;2024-01-16T02:38:34;42.95;;;25.20;;
23171;SDS011;11754;42.664;23.594;2024-01-16T02:40:59;40.65;;;24.05;;
23171;SDS011;11754;42.664;23.594;2024-01-16T02:43:37;40.08;;;24.60;;
23171;SDS011;11754;42.664;23.594;2024-01-16T02:46:03;42.47;;;25.65;;
23171;SDS011;11754;42.664;23.594;2024-01-16T02:48:28;51.47;;;29.35;;
23171;SDS011;11754;42.664;23.594;2024-01-16T02:50:54;51.92;;;31.27;;
23171;SDS011;11754;42.664;23.594;2024-01-16T02:53:19;64.38;;;35.15;;
23171;SDS011;11754;42.664;23.594;2024-01-16T02:55:45;67.93;;;37.42;;
23171;SDS011;11754;42.664;23.594;2024-01-16T02:58:10;90.65;;;47.47;;
23171;SDS011;11754;42.664;23.594;2024-01-16T03:00:36;77.93;;;43.08;;
23171;SDS011;11754;42.664;23.594;2024-01-16T03:06:24;77.88;;;41.05;;
23171;SDS011;11754;42.664;23.594;2024-01-16T03:08:50;73.15;;;40.20;;
23171;SDS011;11754;42.664;23.594;2024-01-16T03:11:16;71.47;;;40.72;;
23171;SDS011;11754;42.664;23.594;2024-01-16T03:13:42;70.65;;;39.00;;
23171;SDS011;11754;42.664;23.594;2024-01-16T03:16:08;65.10;;;34.65;;
23171;SDS011;11754;42.664;23.594;2024-01-16T03:18:37;53.80;;;32.00;;
23171;SDS011;11754;42.664;23.594;2024-01-16T03:21:03;52.67;;;31.00;;
23171;SDS011;11754;42.664;23.594;2024-01-16T03:23:30;49.67;;;29.10;;
23171;SDS011;11754;42.664;23.594;2024-01-16T03:25:56;46.78;;;27.60;;
23171;SDS011;11754;42.664;23.594;2024-01-16T03:28:22;45.75;;;26.67;;
23171;SDS011;11754;42.664;23.594;2024-01-16T03:30:48;44.20;;;26.88;;
23171;SDS011;11754;42.664;23.594;2024-01-16T03:33:13;49.33;;;27.30;;
23171;SDS011;11754;42.664;23.594;2024-01-16T03:35:39;45.13;;;26.58;;
23171;SDS011;11754;42.664;23.594;2024-01-16T03:38:04;55.13;;;28.73;;
23171;SDS011;11754;42.664;23.594;2024-01-16T03:40:30;44.20;;;26.35;;
23171;SDS011;11754;42.664;23.594;2024-01-16T03:42:59;46.42;;;26.25;;
23171;SDS011;11754;42.664;23.594;2024-01-16T03:45:25;40.67;;;23.60;;
23171;SDS011;11754;42.664;23.594;2024-01-16T03:47:51;38.75;;;22.40;;
23171;SDS011;11754;42.664;23.594;2024-01-16T03:50:16;41.72;;;25.80;;
23171;SDS011;11754;42.664;23.594;2024-01-16T03:52:42;35.08;;;20.60;;
23171;SDS011;11754;42.664;23.594;2024-01-16T03:55:07;34.90;;;22.08;;
23171;SDS011;11754;42.664;23.594;2024-01-16T03:57:33;32.45;;;19.85;;
23171;SDS011;11754;42.664;23.594;2024-01-16T03:59:58;23.98;;;13.77;;
23171;SDS011;11754;42.664;23.594;2024-01-16T04:02:24;13.68;;;9.52;;
23171;SDS011;11754;42.664;23.594;2024-01-16T04:04:49;15.55;;;9.98;;
23171;SDS011;11754;42.664;23.594;2024-01-16T04:07:15;13.95;;;8.65;;
23171;SDS011;11754;42.664;23.594;2024-01-16T04:09:41;64.25;;;34.65;;
23171;SDS011;11754;42.664;23.594;2024-01-16T04:12:08;20.75;;;13.60;;
23171;SDS011;11754;42.664;23.594;2024-01-16T04:14:33;8.63;;;6.80;;
23171;SDS011;11754;42.664;23.594;2024-01-16T04:17:17;7.25;;;5.35;;
23171;SDS011;11754;42.664;23.594;2024-01-16T04:19:43;6.78;;;5.28;;
23171;SDS011;11754;42.664;23.594;2024-01-16T04:22:08;7.05;;;5.18;;
23171;SDS011;11754;42.664;23.594;2024-01-16T04:24:34;8.25;;;5.13;;
23171;SDS011;11754;42.664;23.594;2024-01-16T04:26:59;6.25;;;4.65;;
23171;SDS011;11754;42.664;23.594;2024-01-16T04:29:25;7.07;;;4.75;;
23171;SDS011;11754;42.664;23.594;2024-01-16T04:31:50;6.68;;;4.63;;
23171;SDS011;11754;42.664;23.594;2024-01-16T04:34:16;6.25;;;3.97;;
23171;SDS011;11754;42.664;23.594;2024-01-16T04:36:41;6.03;;;3.92;;
23171;SDS011;11754;42.664;23.594;2024-01-16T04:39:07;5.30;;;4.22;;
23171;SDS011;11754;42.664;23.594;2024-01-16T04:41:33;4.75;;;3.85;;
23171;SDS011;11754;42.664;23.594;2024-01-16T04:43:59;4.78;;;3.80;;
23171;SDS011;11754;42.664;23.594;2024-01-16T04:46:25;5.53;;;4.22;;
23171;SDS011;11754;42.664;23.594;2024-01-16T04:48:51;5.25;;;3.40;;
23171;SDS011;11754;42.664;23.594;2024-01-16T04:54:45;4.07;;;2.80;;
23171;SDS011;11754;42.664;23.594;2024-01-16T04:57:11;4.45;;;3.67;;
23171;SDS011;11754;42.664;23.594;2024-01-16T04:59:36;4.43;;;3.20;;
23171;SDS011;11754;42.664;23.594;2024-01-16T05:02:02;3.55;;;2.90;;
23171;SDS011;11754;42.664;23.594;2024-01-16T05:07:49;3.25;;;2.63;;
23171;SDS011;11754;42.664;23.594;2024-01-16T05:10:16;3.50;;;2.20;;
23171;SDS011;11754;42.664;23.594;2024-01-16T05:12:41;3.30;;;2.60;;
23171;SDS011;11754;42.664;23.594;2024-01-16T05:15:07;4.60;;;2.70;;
23171;SDS011;11754;42.664;23.594;2024-01-16T05:17:34;4.75;;;3.42;;
23171;SDS011;11754;42.664;23.594;2024-01-16T05:19:59;3.00;;;2.60;;
23171;SDS011;11754;42.664;23.594;2024-01-16T05:25:50;4.22;;;2.88;;
23171;SDS011;11754;42.664;23.594;2024-01-16T05:28:15;3.22;;;2.55;;
23171;SDS011;11754;42.664;23.594;2024-01-16T05:30:41;3.67;;;2.60;;
23171;SDS011;11754;42.664;23.594;2024-01-16T05:33:07;4.25;;;2.85;;
23171;SDS011;11754;42.664;23.594;2024-01-16T05:35:33;3.30;;;2.58;;
23171;SDS011;11754;42.664;23.594;2024-01-16T05:37:58;3.10;;;2.45;;
23171;SDS011;11754;42.664;23.594;2024-01-16T05:40:24;3.42;;;2.60;;
23171;SDS011;11754;42.664;23.594;2024-01-16T05:42:50;4.78;;;2.40;;
23171;SDS011;11754;42.664;23.594;2024-01-16T05:45:16;3.63;;;2.83;;
23171;SDS011;11754;42.664;23.594;2024-01-16T05:47:41;4.40;;;3.00;;
23171;SDS011;11754;42.664;23.594;2024-01-16T05:50:07;4.05;;;2.75;;
23171;SDS011;11754;42.664;23.594;2024-01-16T05:52:33;3.88;;;2.63;;
23171;SDS011;11754;42.664;23.594;2024-01-16T05:54:59;3.42;;;2.60;;
23171;SDS011;11754;42.664;23.594;2024-01-16T05:57:25;3.53;;;2.80;;
23171;SDS011;11754;42.664;23.594;2024-01-16T05:59:51;2.60;;;2.22;;
23171;SDS011;11754;42.664;23.594;2024-01-16T06:02:17;3.88;;;2.63;;
23171;SDS011;11754;42.664;23.594;2024-01-16T06:04:43;2.95;;;2.47;;
23171;SDS011;11754;42.664;23.594;2024-01-16T06:07:08;4.93;;;2.63;;
23171;SDS011;11754;42.664;23.594;2024-01-16T06:09:40;3.63;;;2.55;;
23171;SDS011;11754;42.664;23.594;2024-01-16T06:12:06;5.03;;;2.80;;
23171;SDS011;11754;42.664;23.594;2024-01-16T06:14:32;3.60;;;2.70;;
23171;SDS011;11754;42.664;23.594;2024-01-16T06:16:58;3.88;;;3.00;;
23171;SDS011;11754;42.664;23.594;2024-01-16T06:19:24;3.80;;;2.70;;
23171;SDS011;11754;42.664;23.594;2024-01-16T06:21:49;3.85;;;2.70;;
23171;SDS011;11754;42.664;23.594;2024-01-16T06:24:15;3.80;;;2.78;;
23171;SDS011;11754;42.664;23.594;2024-01-16T06:26:40;3.53;;;2.53;;
23171;SDS011;11754;42.664;23.594;2024-01-16T06:29:07;4.25;;;2.83;;
23171;SDS011;11754;42.664;23.594;2024-01-16T06:31:33;6.60;;;2.80;;
23171;SDS011;11754;42.664;23.594;2024-01-16T06:33:58;4.85;;;2.80;;
23171;SDS011;11754;42.664;23.594;2024-01-16T06:36:24;4.07;;;2.75;;
23171;SDS011;11754;42.664;23.594;2024-01-16T06:38:50;3.22;;;2.50;;
23171;SDS011;11754;42.664;23.594;2024-01-16T06:41:15;2.90;;;2.45;;
23171;SDS011;11754;42.664;23.594;2024-01-16T06:43:41;2.78;;;2.10;;
23171;SDS011;11754;42.664;23.594;2024-01-16T06:46:06;3.47;;;2.20;;
23171;SDS011;11754;42.664;23.594;2024-01-16T06:48:33;3.67;;;2.20;;
23171;SDS011;11754;42.664;23.594;2024-01-16T06:51:00;3.50;;;2.47;;
23171;SDS011;11754;42.664;23.594;2024-01-16T06:53:26;4.20;;;2.40;;
23171;SDS011;11754;42.664;23.594;2024-01-16T06:55:51;3.47;;;2.40;;
23171;SDS011;11754;42.664;23.594;2024-01-16T06:58:17;5.57;;;2.78;;
23171;SDS011;11754;42.664;23.594;2024-01-16T07:00:42;4.32;;;2.40;;
23171;SDS011;11754;42.664;23.594;2024-01-16T07:03:08;7.22;;;2.63;;
23171;SDS011;11754;42.664;23.594;2024-01-16T07:05:34;3.80;;;2.65;;
23171;SDS011;11754;42.664;23.594;2024-01-16T07:07:59;4.60;;;2.50;;
23171;SDS011;11754;42.664;23.594;2024-01-16T07:10:25;4.88;;;2.65;;
23171;SDS011;11754;42.664;23.594;2024-01-16T07:12:50;4.78;;;2.42;;
23171;SDS011;11754;42.664;23.594;2024-01-16T07:15:17;3.88;;;2.38;;
23171;SDS011;11754;42.664;23.594;2024-01-16T07:17:43;4.15;;;2.45;;
23171;SDS011;11754;42.664;23.594;2024-01-16T07:20:09;4.63;;;2.47;;
23171;SDS011;11754;42.664;23.594;2024-01-16T07:22:36;2.97;;;2.35;;
23171;SDS011;11754;42.664;23.594;2024-01-16T07:25:02;6.90;;;3.17;;
23171;SDS011;11754;42.664;23.594;2024-01-16T07:27:28;5.28;;;2.88;;
23171;SDS011;11754;42.664;23.594;2024-01-16T07:29:53;14.55;;;8.05;;
23171;SDS011;11754;42.664;23.594;2024-01-16T07:32:19;12.02;;;6.68;;
23171;SDS011;11754;42.664;23.594;2024-01-16T07:34:44;6.43;;;3.78;;
23171;SDS011;11754;42.664;23.594;2024-01-16T07:37:10;10.07;;;6.25;;
23171;SDS011;11754;42.664;23.594;2024-01-16T07:39:35;7.95;;;3.85;;
23171;SDS011;11754;42.664;23.594;2024-01-16T07:42:01;4.88;;;3.13;;
23171;SDS011;11754;42.664;23.594;2024-01-16T07:44:26;4.88;;;3.30;;
23171;SDS011;11754;42.664;23.594;2024-01-16T07:46:52;4.65;;;3.25;;
23171;SDS011;11754;42.664;23.594;2024-01-16T07:49:18;5.90;;;3.47;;
23171;SDS011;11754;42.664;23.594;2024-01-16T07:51:43;7.03;;;4.65;;
23171;SDS011;11754;42.664;23.594;2024-01-16T07:54:09;5.07;;;3.20;;
23171;SDS011;11754;42.664;23.594;2024-01-16T07:56:35;6.00;;;4.40;;
23171;SDS011;11754;42.664;23.594;2024-01-16T07:59:01;5.65;;;3.20;;
23171;SDS011;11754;42.664;23.594;2024-01-16T08:01:27;4.20;;;3.10;;
23171;SDS011;11754;42.664;23.594;2024-01-16T08:03:56;4.00;;;2.67;;
23171;SDS011;11754;42.664;23.594;2024-01-16T08:06:22;5.43;;;2.83;;
23171;SDS011;11754;42.664;23.594;2024-01-16T08:08:48;4.07;;;2.97;;
23171;SDS011;11754;42.664;23.594;2024-01-16T08:11:14;4.32;;;3.20;;
23171;SDS011;11754;42.664;23.594;2024-01-16T08:13:40;6.80;;;3.30;;
23171;SDS011;11754;42.664;23.594;2024-01-16T08:16:06;5.20;;;3.22;;
23171;SDS011;11754;42.664;23.594;2024-01-16T08:18:32;5.07;;;2.83;;
23171;SDS011;11754;42.664;23.594;2024-01-16T08:20:57;6.30;;;3.22;;
23171;SDS011;11754;42.664;23.594;2024-01-16T08:23:23;3.65;;;2.85;;
23171;SDS011;11754;42.664;23.594;2024-01-16T08:25:48;4.47;;;3.03;;
23171;SDS011;11754;42.664;23.594;2024-01-16T08:28:16;4.20;;;3.10;;
23171;SDS011;11754;42.664;23.594;2024-01-16T08:30:42;4.03;;;2.35;;
23171;SDS011;11754;42.664;23.594;2024-01-16T08:33:08;3.45;;;2.67;;
23171;SDS011;11754;42.664;23.594;2024-01-16T08:35:33;3.78;;;2.42;;
23171;SDS011;11754;42.664;23.594;2024-01-16T08:37:59;7.53;;;2.30;;
23171;SDS011;11754;42.664;23.594;2024-01-16T08:40:24;4.65;;;2.45;;
23171;SDS011;11754;42.664;23.594;2024-01-16T08:42:50;3.33;;;2.28;;
23171;SDS011;11754;42.664;23.594;2024-01-16T08:45:20;3.35;;;2.22;;
23171;SDS011;11754;42.664;23.594;2024-01-16T08:47:46;3.67;;;2.50;;
23171;SDS011;11754;42.664;23.594;2024-01-16T08:50:11;3.15;;;2.08;;
23171;SDS011;11754;42.664;23.594;2024-01-16T08:52:37;4.32;;;2.65;;
23171;SDS011;11754;42.664;23.594;2024-01-16T08:55:02;5.18;;;2.42;;
23171;SDS011;11754;42.664;23.594;2024-01-16T08:57:29;4.65;;;2.38;;
23171;SDS011;11754;42.664;23.594;2024-01-16T08:59:54;4.68;;;2.47;;
23171;SDS011;11754;42.664;23.594;2024-01-16T09:02:20;5.00;;;2.42;;
23171;SDS011;11754;42.664;23.594;2024-01-16T09:04:46;4.68;;;2.47;;
23171;SDS011;11754;42.664;23.594;2024-01-16T09:07:12;3.88;;;2.33;;
23171;SDS011;11754;42.664;23.594;2024-01-16T09:09:40;6.57;;;2.55;;
23171;SDS011;11754;42.664;23.594;2024-01-16T09:12:07;4.88;;;2.78;;
23171;SDS011;11754;42.664;23.594;2024-01-16T09:14:33;4.57;;;2.75;;
23171;SDS011;11754;42.664;23.594;2024-01-16T09:16:59;3.85;;;2.65;;
23171;SDS011;11754;42.664;23.594;2024-01-16T09:19:24;5.55;;;2.90;;
23171;SDS011;11754;42.664;23.594;2024-01-16T09:21:50;5.25;;;3.38;;
23171;SDS011;11754;42.664;23.594;2024-01-16T09:24:15;5.07;;;3.22;;
23171;SDS011;11754;42.664;23.594;2024-01-16T09:26:41;4.68;;;3.10;;
23171;SDS011;11754;42.664;23.594;2024-01-16T09:29:07;5.07;;;3.40;;
23171;SDS011;11754;42.664;23.594;2024-01-16T09:31:34;5.07;;;3.08;;
23171;SDS011;11754;42.664;23.594;2024-01-16T09:34:00;6.00;;;3.22;;
23171;SDS011;11754;42.664;23.594;2024-01-16T09:36:27;6.20;;;3.25;;
23171;SDS011;11754;42.664;23.594;2024-01-16T09:38:52;5.32;;;3.40;;
23171;SDS011;11754;42.664;23.594;2024-01-16T09:41:18;4.40;;;3.17;;
23171;SDS011;11754;42.664;23.594;2024-01-16T09:43:44;4.57;;;3.45;;
23171;SDS011;11754;42.664;23.594;2024-01-16T09:46:11;6.35;;;3.80;;
23171;SDS011;11754;42.664;23.594;2024-01-16T09:48:37;5.78;;;3.90;;
23171;SDS011;11754;42.664;23.594;2024-01-16T09:51:03;7.82;;;5.30;;
23171;SDS011;11754;42.664;23.594;2024-01-16T09:53:28;8.55;;;4.97;;
23171;SDS011;11754;42.664;23.594;2024-01-16T09:55:54;6.70;;;4.53;;
23171;SDS011;11754;42.664;23.594;2024-01-16T09:58:25;6.35;;;4.07;;
23171;SDS011;11754;42.664;23.594;2024-01-16T10:00:53;5.90;;;3.55;;
23171;SDS011;11754;42.664;23.594;2024-01-16T10:03:19;6.97;;;3.72;;
23171;SDS011;11754;42.664;23.594;2024-01-16T10:05:45;5.25;;;3.38;;
23171;SDS011;11754;42.664;23.594;2024-01-16T10:08:13;5.13;;;3.10;;
23171;SDS011;11754;42.664;23.594;2024-01-16T10:10:38;6.05;;;4.00;;
23171;SDS011;11754;42.664;23.594;2024-01-16T10:13:05;7.85;;;3.58;;
23171;SDS011;11754;42.664;23.594;2024-01-16T10:15:31;7.57;;;3.40;;
23171;SDS011;11754;42.664;23.594;2024-01-16T10:17:57;5.95;;;3.47;;
23171;SDS011;11754;42.664;23.594;2024-01-16T10:20:34;5.80;;;3.95;;
23171;SDS011;11754;42.664;23.594;2024-01-16T10:23:00;11.77;;;4.20;;
23171;SDS011;11754;42.664;23.594;2024-01-16T10:25:28;7.22;;;3.75;;
23171;SDS011;11754;42.664;23.594;2024-01-16T10:28:04;7.18;;;4.30;;
23171;SDS011;11754;42.664;23.594;2024-01-16T10:30:32;6.68;;;4.13;;
23171;SDS011;11754;42.664;23.594;2024-01-16T10:33:11;6.85;;;3.83;;
23171;SDS011;11754;42.664;23.594;2024-01-16T10:35:39;8.50;;;3.72;;
23171;SDS011;11754;42.664;23.594;2024-01-16T10:38:05;4.57;;;2.92;;
23171;SDS011;11754;42.664;23.594;2024-01-16T10:40:30;7.85;;;3.45;;
23171;SDS011;11754;42.664;23.594;2024-01-16T10:42:57;7.68;;;3.15;;
23171;SDS011;11754;42.664;23.594;2024-01-16T10:45:26;10.13;;;3.63;;
23171;SDS011;11754;42.664;23.594;2024-01-16T10:48:08;4.18;;;3.20;;
23171;SDS011;11754;42.664;23.594;2024-01-16T10:50:37;7.85;;;3.38;;
23171;SDS011;11754;42.664;23.594;2024-01-16T10:53:04;8.57;;;4.63;;
23171;SDS011;11754;42.664;23.594;2024-01-16T10:55:30;8.57;;;5.38;;
23171;SDS011;11754;42.664;23.594;2024-01-16T10:57:56;10.27;;;4.40;;
23171;SDS011;11754;42.664;23.594;2024-01-16T11:03:47;10.85;;;3.17;;
23171;SDS011;11754;42.664;23.594;2024-01-16T11:06:14;4.57;;;3.13;;
23171;SDS011;11754;42.664;23.594;2024-01-16T11:08:41;4.07;;;2.70;;
23171;SDS011;11754;42.664;23.594;2024-01-16T11:11:08;9.48;;;3.20;;
23171;SDS011;11754;42.664;23.594;2024-01-16T11:13:35;5.63;;;3.03;;
23171;SDS011;11754;42.664;23.594;2024-01-16T11:16:04;6.03;;;2.90;;
23171;SDS011;11754;42.664;23.594;2024-01-16T11:18:32;4.93;;;2.90;;
23171;SDS011;11754;42.664;23.594;2024-01-16T11:24:17;7.45;;;3.40;;
23171;SDS011;11754;42.664;23.594;2024-01-16T11:26:43;7.05;;;3.50;;
23171;SDS011;11754;42.664;23.594;2024-01-16T11:31:52;5.97;;;2.92;;
23171;SDS011;11754;42.664;23.594;2024-01-16T11:37:18;5.93;;;3.38;;
23171;SDS011;11754;42.664;23.594;2024-01-16T11:53:31;7.10;;;4.00;;
23171;SDS011;11754;42.664;23.594;2024-01-16T11:56:16;5.63;;;3.40;;
23171;SDS011;11754;42.664;23.594;2024-01-16T12:08:52;6.35;;;3.42;;
23171;SDS011;11754;42.664;23.594;2024-01-16T12:11:20;9.20;;;4.20;;
23171;SDS011;11754;42.664;23.594;2024-01-16T12:14:00;8.90;;;3.30;;
23171;SDS011;11754;42.664;23.594;2024-01-16T12:16:26;13.68;;;3.85;;
23171;SDS011;11754;42.664;23.594;2024-01-16T12:19:03;7.50;;;3.13;;
23171;SDS011;11754;42.664;23.594;2024-01-16T12:21:38;12.27;;;3.05;;
23171;SDS011;11754;42.664;23.594;2024-01-16T12:24:05;6.65;;;2.70;;
23171;SDS011;11754;42.664;23.594;2024-01-16T12:26:30;10.32;;;3.00;;
23171;SDS011;11754;42.664;23.594;2024-01-16T12:28:57;4.40;;;2.78;;
23171;SDS011;11754;42.664;23.594;2024-01-16T12:48:10;7.60;;;3.22;;
23171;SDS011;11754;42.664;23.594;2024-01-16T12:50:36;5.70;;;3.55;;
23171;SDS011;11754;42.664;23.594;2024-01-16T12:55:29;3.85;;;2.70;;
23171;SDS011;11754;42.664;23.594;2024-01-16T13:00:52;4.85;;;2.30;;
23171;SDS011;11754;42.664;23.594;2024-01-16T13:03:22;4.70;;;1.90;;
23171;SDS011;11754;42.664;23.594;2024-01-16T13:05:58;3.40;;;2.05;;
23171;SDS011;11754;42.664;23.594;2024-01-16T13:08:25;5.30;;;2.70;;
23171;SDS011;11754;42.664;23.594;2024-01-16T13:11:03;6.65;;;2.33;;
23171;SDS011;11754;42.664;23.594;2024-01-16T13:13:30;3.30;;;2.17;;
23171;SDS011;11754;42.664;23.594;2024-01-16T13:15:56;7.25;;;2.78;;
23171;SDS011;11754;42.664;23.594;2024-01-16T13:18:23;4.88;;;2.35;;
23171;SDS011;11754;42.664;23.594;2024-01-16T13:20:50;4.65;;;2.45;;
23171;SDS011;11754;42.664;23.594;2024-01-16T13:23:17;9.20;;;2.47;;
23171;SDS011;11754;42.664;23.594;2024-01-16T13:25:43;4.60;;;2.22;;
23171;SDS011;11754;42.664;23.594;2024-01-16T13:28:13;3.97;;;2.40;;
23171;SDS011;11754;42.664;23.594;2024-01-16T13:30:43;4.97;;;2.33;;
23171;SDS011;11754;42.664;23.594;2024-01-16T13:33:10;4.10;;;2.30;;
23171;SDS011;11754;42.664;23.594;2024-01-16T13:35:39;6.95;;;2.22;;
23171;SDS011;11754;42.664;23.594;2024-01-16T13:38:07;6.63;;;2.17;;
23171;SDS011;11754;42.664;23.594;2024-01-16T13:40:33;3.58;;;2.03;;
23171;SDS011;11754;42.664;23.594;2024-01-16T13:43:00;3.22;;;2.20;;
23171;SDS011;11754;42.664;23.594;2024-01-16T13:45:26;5.00;;;2.50;;
23171;SDS011;11754;42.664;23.594;2024-01-16T13:47:52;10.85;;;2.90;;
23171;SDS011;11754;42.664;23.594;2024-01-16T13:50:17;5.38;;;2.58;;
23171;SDS011;11754;42.664;23.594;2024-01-16T13:52:43;8.20;;;2.50;;
23171;SDS011;11754;42.664;23.594;2024-01-16T13:55:09;5.05;;;2.75;;
23171;SDS011;11754;42.664;23.594;2024-01-16T13:57:35;5.95;;;2.20;;
23171;SDS011;11754;42.664;23.594;2024-01-16T14:00:04;6.57;;;2.20;;
23171;SDS011;11754;42.664;23.594;2024-01-16T14:02:32;5.05;;;2.60;;
23171;SDS011;11754;42.664;23.594;2024-01-16T14:04:59;5.97;;;2.17;;
23171;SDS011;11754;42.664;23.594;2024-01-16T14:07:25;5.20;;;2.20;;
23171;SDS011;11754;42.664;23.594;2024-01-16T14:09:51;3.17;;;1.63;;
23171;SDS011;11754;42.664;23.594;2024-01-16T14:12:17;9.82;;;2.58;;
23171;SDS011;11754;42.664;23.594;2024-01-16T14:14:44;4.82;;;2.00;;
23171;SDS011;11754;42.664;23.594;2024-01-16T14:17:09;7.20;;;2.40;;
23171;SDS011;11754;42.664;23.594;2024-01-16T14:26:19;8.85;;;3.30;;
23171;SDS011;11754;42.664;23.594;2024-01-16T14:28:44;11.88;;;3.78;;
23171;SDS011;11754;42.664;23.594;2024-01-16T14:31:09;7.65;;;4.32;;
23171;SDS011;11754;42.664;23.594;2024-01-16T14:33:35;9.27;;;3.88;;
23171;SDS011;11754;42.664;23.594;2024-01-16T14:39:22;15.52;;;4.28;;
23171;SDS011;11754;42.664;23.594;2024-01-16T14:41:50;12.07;;;3.38;;
23171;SDS011;11754;42.664;23.594;2024-01-16T14:44:16;8.35;;;3.30;;
23171;SDS011;11754;42.664;23.594;2024-01-16T14:46:42;9.57;;;3.75;;
23171;SDS011;11754;42.664;23.594;2024-01-16T14:49:10;3.97;;;2.67;;
23171;SDS011;11754;42.664;23.594;2024-01-16T14:51:35;5.63;;;2.75;;
23171;SDS011;11754;42.664;23.594;2024-01-16T14:54:02;8.02;;;3.53;;
23171;SDS011;11754;42.664;23.594;2024-01-16T14:56:29;7.15;;;3.13;;
23171;SDS011;11754;42.664;23.594;2024-01-16T14:58:55;58.25;;;27.27;;
23171;SDS011;11754;42.664;23.594;2024-01-16T15:01:21;26.67;;;12.20;;
23171;SDS011;11754;42.664;23.594;2024-01-16T15:03:46;6.93;;;3.60;;
23171;SDS011;11754;42.664;23.594;2024-01-16T15:06:14;11.70;;;3.90;;
23171;SDS011;11754;42.664;23.594;2024-01-16T15:08:40;6.20;;;3.67;;
23171;SDS011;11754;42.664;23.594;2024-01-16T15:11:06;6.22;;;3.42;;
23171;SDS011;11754;42.664;23.594;2024-01-16T15:13:32;5.30;;;3.85;;
23171;SDS011;11754;42.664;23.594;2024-01-16T15:22:42;6.68;;;3.85;;
23171;SDS011;11754;42.664;23.594;2024-01-16T15:25:15;15.48;;;3.67;;
23171;SDS011;11754;42.664;23.594;2024-01-16T15:27:43;14.73;;;4.35;;
23171;SDS011;11754;42.664;23.594;2024-01-16T15:30:13;13.68;;;5.10;;
23171;SDS011;11754;42.664;23.594;2024-01-16T15:32:45;24.65;;;11.02;;
23171;SDS011;11754;42.664;23.594;2024-01-16T15:35:11;25.73;;;13.32;;
23171;SDS011;11754;42.664;23.594;2024-01-16T15:37:36;32.20;;;15.40;;
23171;SDS011;11754;42.664;23.594;2024-01-16T15:40:02;36.22;;;17.83;;
23171;SDS011;11754;42.664;23.594;2024-01-16T15:42:32;33.97;;;13.40;;
23171;SDS011;11754;42.664;23.594;2024-01-16T15:44:57;49.53;;;22.85;;
23171;SDS011;11754;42.664;23.594;2024-01-16T15:47:23;43.90;;;19.52;;
23171;SDS011;11754;42.664;23.594;2024-01-16T15:49:49;19.60;;;9.82;;
23171;SDS011;11754;42.664;23.594;2024-01-16T15:59:04;14.13;;;6.78;;
23171;SDS011;11754;42.664;23.594;2024-01-16T16:01:29;16.00;;;6.68;;
23171;SDS011;11754;42.664;23.594;2024-01-16T16:03:57;13.75;;;7.90;;
23171;SDS011;11754;42.664;23.594;2024-01-16T16:06:22;13.43;;;7.95;;